Niobrara, Nebraska
Current Conditions -  °F | °C
As of 10:55 AM on Saturday 25 Oct 2014 (Local Time) from KYKN Reporting Station
Clear Clear  
Wind Chill: 57°   Ceiling: Unl
Heat Index: 57°   Visibility: 10mi
Dew Point: 43°   Wind: 5mph
Humidity: 59%   Direction: 330°NNW
Pressure: 30.16"   Gusts: NA
Location:  42.75°N, 98.03°W
Report Text: KYKN 251555Z AUTO 33004KT 10SM CLR 14/06 A3016 RMK AO1
Loading
Personal Weather Stations






























Interactive Weather Map
Tropical Storm Tracking
New forecast layout! Learn more

10-Day Weather Forecast

Advertisements
Track Severe Weather on mobile